createdAt,value
2019-06-10T00:02:21.385Z,16.20
2019-06-10T00:04:50.828Z,16.20
2019-06-10T00:07:21.104Z,16.20
2019-06-10T00:09:51.048Z,16.20
2019-06-10T00:12:18.068Z,16.20
2019-06-10T00:14:45.839Z,16.20
2019-06-10T00:17:13.569Z,16.20
2019-06-10T00:19:41.289Z,16.20
2019-06-10T00:22:11.560Z,16.10
2019-06-10T00:24:40.794Z,16.20
2019-06-10T00:27:09.338Z,16.20
2019-06-10T00:29:37.466Z,16.20
2019-06-10T00:32:06.999Z,16.20
2019-06-10T00:34:35.154Z,16.20
2019-06-10T00:37:06.329Z,16.10
2019-06-10T00:39:32.450Z,16.00
2019-06-10T00:42:02.486Z,16.00
2019-06-10T00:44:31.123Z,16.00
2019-06-10T00:47:00.090Z,15.80
2019-06-10T00:49:28.829Z,15.80
2019-06-10T00:51:56.914Z,15.70
2019-06-10T00:54:24.622Z,15.60
2019-06-10T00:56:52.350Z,15.60
2019-06-10T00:59:22.062Z,15.60
2019-06-10T01:01:50.919Z,15.50
2019-06-10T01:04:21.392Z,15.50
2019-06-10T01:06:51.232Z,15.50
2019-06-10T01:09:18.332Z,15.50
2019-06-10T01:11:45.975Z,15.60
2019-06-10T01:14:15.384Z,15.70
2019-06-10T01:16:43.219Z,15.70
2019-06-10T01:19:12.749Z,15.70
2019-06-10T01:21:41.534Z,15.80
2019-06-10T01:24:11.614Z,15.90
2019-06-10T01:26:41.053Z,15.90
2019-06-10T01:29:08.003Z,15.90
2019-06-10T01:31:35.654Z,15.90
2019-06-10T01:34:03.424Z,15.90
2019-06-10T01:36:31.473Z,15.80
2019-06-10T01:39:01.410Z,15.80
2019-06-10T01:41:30.614Z,15.80
2019-06-10T01:43:58.162Z,15.90
2019-06-10T01:46:25.811Z,15.80
2019-06-10T01:48:53.465Z,15.90
2019-06-10T01:53:51.330Z,15.70
2019-06-10T01:56:21.211Z,15.70
2019-06-10T01:58:51.156Z,15.60
2019-06-10T02:01:25.451Z,15.60
2019-06-10T02:03:53.239Z,15.60
2019-06-10T02:06:25.420Z,15.70
2019-06-10T02:08:51.895Z,15.70
2019-06-10T02:11:23.577Z,15.70
2019-06-10T02:13:51.407Z,15.80
2019-06-10T02:16:23.401Z,15.80
2019-06-10T02:18:58.630Z,15.60
2019-06-10T02:21:21.751Z,15.60
2019-06-10T02:23:47.648Z,15.50
2019-06-10T02:26:16.847Z,15.50
2019-06-10T02:28:44.819Z,15.40
2019-06-10T02:31:15.171Z,15.40
2019-06-10T02:33:42.210Z,15.40
2019-06-10T02:36:09.976Z,15.40
2019-06-10T02:38:39.660Z,15.40
2019-06-10T02:41:07.474Z,15.30
2019-06-10T02:43:37.401Z,15.30
2019-06-10T02:46:05.378Z,15.20
2019-06-10T02:48:34.941Z,15.30
2019-06-10T02:51:04.387Z,15.30
2019-06-10T02:53:36.123Z,15.40
2019-06-10T02:56:04.148Z,15.30
2019-06-10T02:58:38.508Z,15.40
2019-06-10T03:01:03.908Z,15.30
2019-06-10T03:03:42.013Z,15.40
2019-06-10T03:06:00.211Z,15.30
2019-06-10T03:08:31.705Z,15.30
2019-06-10T03:10:57.663Z,15.30
2019-06-10T03:13:25.692Z,15.30
2019-06-10T03:15:58.048Z,15.30
2019-06-10T03:18:25.978Z,15.30
2019-06-10T03:20:53.919Z,15.30
2019-06-10T03:23:23.238Z,15.30
2019-06-10T03:26:03.685Z,15.30
2019-06-10T03:28:32.139Z,15.30
2019-06-10T03:31:04.300Z,15.30
2019-06-10T03:33:39.343Z,15.30
2019-06-10T03:35:58.875Z,15.40
2019-06-10T03:38:28.178Z,15.30
2019-06-10T03:40:56.019Z,15.40
2019-06-10T03:43:25.220Z,15.30
2019-06-10T03:45:53.231Z,15.40
2019-06-10T03:48:21.773Z,15.50
2019-06-10T03:50:52.404Z,15.50
2019-06-10T03:53:21.285Z,15.50
2019-06-10T03:55:52.526Z,15.50
2019-06-10T03:58:19.988Z,15.50
2019-06-10T04:00:48.089Z,15.60
2019-06-10T04:03:15.871Z,15.70
2019-06-10T04:05:43.791Z,15.70
2019-06-10T04:08:12.598Z,15.70
2019-06-10T04:10:40.404Z,15.70
2019-06-10T04:13:08.049Z,15.70
2019-06-10T04:15:35.703Z,15.70
2019-06-10T04:18:04.066Z,16.30
2019-06-10T04:20:33.197Z,15.90
2019-06-10T04:23:02.796Z,15.90
2019-06-10T04:25:32.377Z,16.00
2019-06-10T04:27:59.720Z,16.10
2019-06-10T04:30:28.180Z,16.10
2019-06-10T04:32:57.802Z,16.20
2019-06-10T04:35:26.515Z,16.50
2019-06-10T04:37:54.811Z,16.50
2019-06-10T04:40:23.547Z,16.70
2019-06-10T05:07:44.490Z,16.90
2019-06-10T05:10:12.533Z,17.70
2019-06-10T05:12:40.346Z,17.80
2019-06-10T05:15:08.655Z,17.90
2019-06-10T05:17:36.445Z,17.90
2019-06-10T05:20:07.904Z,18.00
2019-06-10T05:22:35.847Z,18.10
2019-06-10T05:25:04.463Z,18.30
2019-06-10T05:27:32.970Z,18.40
2019-06-10T05:30:02.367Z,18.50
2019-06-10T05:32:32.845Z,18.60
2019-06-10T05:34:59.654Z,18.90
2019-06-10T05:37:28.216Z,18.90
2019-06-10T05:39:57.027Z,19.00
2019-06-10T05:42:26.083Z,19.10
2019-06-10T05:44:55.229Z,19.30
2019-06-10T05:47:25.992Z,19.40
2019-06-10T05:49:52.905Z,19.60
2019-06-10T05:52:22.981Z,19.80
2019-06-10T05:54:52.170Z,20.10
2019-06-10T05:57:19.583Z,20.30
2019-06-10T05:59:47.358Z,20.50
2019-06-10T06:02:15.037Z,20.70
2019-06-10T06:04:42.920Z,20.90
2019-06-10T06:07:12.846Z,21.10
2019-06-10T06:09:42.575Z,21.30
2019-06-10T06:12:11.887Z,21.40
2019-06-10T06:14:39.369Z,21.50
2019-06-10T06:17:07.340Z,21.60
2019-06-10T06:19:37.371Z,21.70
2019-06-10T06:22:04.583Z,21.70
2019-06-10T06:24:34.335Z,21.70
2019-06-10T06:27:02.497Z,21.70
2019-06-10T06:29:31.495Z,21.60
2019-06-10T06:32:02.547Z,21.70
2019-06-10T06:34:30.845Z,21.80
2019-06-10T06:36:59.044Z,21.90
2019-06-10T06:39:27.043Z,22.00
2019-06-10T06:41:54.908Z,22.00
2019-06-10T06:44:23.392Z,22.00
2019-06-10T06:46:53.290Z,22.10
2019-06-10T06:49:23.083Z,22.20
2019-06-10T06:51:56.192Z,22.30
2019-06-10T06:54:20.047Z,22.40
2019-06-10T06:56:47.709Z,22.40
2019-06-10T06:59:15.579Z,22.40
2019-06-10T07:01:44.086Z,22.50
2019-06-10T07:04:13.084Z,22.50
2019-06-10T07:06:43.240Z,22.50
2019-06-10T07:09:13.521Z,22.60
2019-06-10T07:11:44.892Z,22.60
2019-06-10T07:14:13.359Z,22.70
2019-06-10T07:16:45.846Z,22.80
2019-06-10T07:19:13.016Z,22.80
2019-06-10T07:21:58.429Z,22.80
2019-06-10T07:24:09.949Z,22.80
2019-06-10T07:26:43.505Z,22.90
2019-06-10T07:29:07.123Z,23.00
2019-06-10T07:31:36.396Z,23.10
2019-06-10T07:34:04.207Z,23.00
2019-06-10T07:36:32.933Z,23.00
2019-06-10T07:39:03.493Z,23.20
2019-06-10T07:41:32.803Z,23.60
2019-06-10T07:44:00.406Z,24.00
2019-06-10T07:46:28.834Z,24.40
2019-06-10T07:48:56.947Z,24.70
2019-06-10T07:51:24.927Z,25.00
2019-06-10T07:53:52.898Z,25.10
2019-06-10T07:56:23.302Z,25.20
2019-06-10T07:58:52.556Z,25.10
2019-06-10T08:01:22.637Z,25.20
2019-06-10T08:03:49.496Z,25.20
2019-06-10T08:06:17.157Z,25.20
2019-06-10T08:08:45.435Z,25.40
2019-06-10T08:11:13.813Z,25.50
2019-06-10T08:13:45.602Z,25.40
2019-06-10T08:16:13.093Z,25.40
2019-06-10T08:19:07.909Z,25.50
2019-06-10T08:21:12.228Z,25.50
2019-06-10T08:23:43.092Z,25.50
2019-06-10T08:26:12.451Z,25.60
2019-06-10T08:28:39.619Z,25.60
2019-06-10T08:31:12.349Z,25.80
2019-06-10T08:33:42.545Z,25.90
2019-06-10T08:36:09.156Z,26.00
2019-06-10T08:38:38.212Z,26.20
2019-06-10T08:41:06.296Z,26.30
2019-06-10T08:43:34.023Z,26.50
2019-06-10T08:46:02.616Z,26.50
2019-06-10T08:48:32.732Z,26.40
2019-06-10T08:51:00.331Z,26.20
2019-06-10T08:53:28.150Z,26.00
2019-06-10T08:55:55.905Z,26.00
2019-06-10T08:58:23.627Z,25.80
2019-06-10T09:00:53.461Z,25.80
2019-06-10T09:03:23.185Z,25.80
2019-06-10T09:05:51.757Z,25.80
2019-06-10T09:08:20.411Z,25.90
2019-06-10T09:10:50.996Z,26.00
2019-06-10T09:13:18.005Z,26.10
2019-06-10T09:16:03.696Z,26.20
2019-06-10T09:18:19.676Z,26.10
2019-06-10T09:20:48.995Z,26.10
2019-06-10T09:23:21.781Z,25.80
2019-06-10T09:25:48.160Z,25.70
2019-06-10T09:28:13.305Z,25.40
2019-06-10T09:30:46.933Z,25.30
2019-06-10T09:33:12.853Z,25.20
2019-06-10T09:35:41.782Z,25.20
2019-06-10T09:38:09.885Z,25.30
2019-06-10T09:40:48.647Z,25.50
2019-06-10T09:43:12.858Z,25.70
2019-06-10T09:45:45.358Z,26.20
2019-06-10T09:48:13.163Z,26.40
2019-06-10T09:50:47.914Z,26.40
2019-06-10T09:53:13.899Z,26.40
2019-06-10T09:55:44.505Z,26.40
2019-06-10T09:58:12.331Z,26.40
2019-06-10T10:00:45.196Z,26.40
2019-06-10T10:03:12.396Z,26.50
2019-06-10T10:05:51.927Z,26.50
2019-06-10T10:08:12.544Z,26.40
2019-06-10T10:10:39.737Z,26.30
2019-06-10T10:13:07.851Z,26.30
2019-06-10T10:15:36.376Z,26.30
2019-06-10T10:18:05.001Z,26.30
2019-06-10T10:20:34.068Z,26.30
2019-06-10T10:23:02.660Z,26.40
2019-06-10T10:25:32.816Z,26.40
2019-06-10T10:28:03.057Z,26.50
2019-06-10T10:30:29.725Z,26.60
2019-06-10T10:32:57.717Z,26.70
2019-06-10T10:35:25.551Z,27.00
2019-06-10T10:37:54.302Z,27.10
2019-06-10T10:43:01.548Z,27.40
2019-06-10T10:45:22.657Z,28.10
2019-06-10T10:47:52.599Z,28.00
2019-06-10T10:50:22.381Z,27.50
2019-06-10T10:52:49.932Z,27.30
2019-06-10T10:58:42.511Z,27.30
2019-06-10T11:01:14.583Z,27.50
2019-06-10T11:03:39.816Z,27.70
2019-06-10T11:06:07.740Z,27.90
2019-06-10T11:08:35.528Z,27.90
2019-06-10T11:11:05.274Z,28.10
2019-06-10T11:13:34.163Z,27.90
2019-06-10T11:16:26.939Z,27.80
2019-06-10T11:18:56.434Z,27.60
2019-06-10T11:21:24.068Z,27.50
2019-06-10T11:23:54.234Z,27.60
2019-06-10T11:26:22.877Z,27.70
2019-06-10T11:28:52.837Z,27.70
2019-06-10T11:31:22.563Z,27.90
2019-06-10T11:33:50.604Z,27.90
2019-06-10T11:36:18.770Z,28.10
2019-06-10T11:38:46.911Z,27.90
2019-06-10T11:41:14.600Z,28.00
2019-06-10T11:43:43.179Z,28.00
2019-06-10T11:46:13.697Z,27.90
2019-06-10T11:48:43.155Z,27.90
2019-06-10T11:53:37.558Z,28.20
2019-06-10T11:56:05.305Z,28.20
2019-06-10T11:58:33.438Z,28.20
2019-06-10T12:01:03.766Z,28.40
2019-06-10T12:03:30.789Z,28.30
2019-06-10T12:06:01.112Z,28.30
2019-06-10T12:08:27.911Z,28.50
2019-06-10T12:10:59.083Z,28.70
2019-06-10T12:28:17.900Z,29.10
2019-06-10T12:30:45.579Z,29.10
2019-06-10T12:33:21.302Z,29.20
2019-06-10T12:35:42.695Z,29.20
2019-06-10T12:38:13.075Z,29.20
2019-06-10T12:40:39.834Z,29.20
2019-06-10T12:43:07.810Z,29.00
2019-06-10T12:45:35.862Z,29.20
2019-06-10T12:50:32.571Z,29.50
2019-06-10T12:53:04.639Z,29.50
2019-06-10T12:55:40.263Z,29.70
2019-06-10T12:57:59.883Z,29.80
2019-06-10T13:00:29.325Z,29.70
2019-06-10T13:05:25.691Z,29.80
2019-06-10T13:07:55.340Z,29.50
2019-06-10T13:10:36.782Z,29.50
2019-06-10T13:13:07.152Z,29.40
2019-06-10T13:15:34.188Z,29.50
2019-06-10T13:18:05.759Z,29.70
2019-06-10T13:20:32.210Z,29.90
2019-06-10T13:23:09.515Z,30.20
2019-06-10T13:25:29.413Z,30.10
2019-06-10T13:27:57.748Z,30.10
2019-06-10T13:37:52.191Z,30.70
2019-06-10T13:40:19.419Z,31.00
2019-06-10T13:42:47.405Z,31.20
2019-06-10T13:45:15.460Z,30.90
2019-06-10T13:47:43.788Z,30.70
2019-06-10T13:50:14.476Z,30.70
2019-06-10T13:52:42.584Z,31.20
2019-06-10T13:55:13.582Z,31.30
2019-06-10T13:57:42.631Z,31.40
2019-06-10T14:00:12.389Z,31.40
2019-06-10T14:02:42.978Z,31.40
2019-06-10T14:05:16.291Z,31.70
2019-06-10T14:07:39.350Z,31.60
2019-06-10T14:10:10.826Z,31.30
2019-06-10T14:12:36.879Z,31.30
2019-06-10T14:15:08.061Z,31.30
2019-06-10T14:17:34.860Z,32.00
2019-06-10T14:20:03.717Z,32.00
2019-06-10T14:22:32.892Z,32.10
2019-06-10T14:25:03.346Z,31.90
2019-06-10T14:27:30.387Z,31.50
2019-06-10T14:29:58.051Z,31.50
2019-06-10T14:32:25.723Z,31.60
2019-06-10T14:34:53.445Z,31.50
2019-06-10T14:37:33.126Z,32.70
2019-06-10T14:39:52.760Z,32.80
2019-06-10T14:42:19.918Z,34.30
2019-06-10T14:44:47.815Z,35.10
2019-06-10T14:49:44.586Z,35.90
2019-06-10T14:52:13.945Z,36.00
2019-06-10T14:54:42.827Z,36.60
2019-06-10T14:57:13.234Z,36.60
2019-06-10T14:59:42.551Z,36.50
2019-06-10T15:02:12.434Z,37.30
2019-06-10T15:04:39.531Z,37.40
2019-06-10T15:07:07.305Z,37.40
2019-06-10T15:09:34.994Z,37.00
2019-06-10T15:12:02.994Z,36.50
2019-06-10T15:14:32.380Z,36.70
2019-06-10T15:17:02.682Z,37.30
2019-06-10T15:19:29.903Z,37.40
2019-06-10T15:21:57.631Z,37.60
2019-06-10T15:24:25.647Z,37.90
2019-06-10T15:27:08.855Z,37.80
2019-06-10T15:29:23.858Z,38.00
2019-06-10T15:32:06.009Z,38.10
2019-06-10T15:34:21.203Z,39.30
2019-06-10T15:36:49.141Z,39.30
2019-06-10T15:39:19.683Z,38.70
2019-06-10T15:41:46.320Z,38.50
2019-06-10T15:44:17.368Z,38.20
2019-06-10T15:46:43.707Z,38.10
2019-06-10T15:49:15.554Z,38.10
2019-06-10T15:51:43.364Z,38.00
2019-06-10T15:54:14.028Z,38.40
2019-06-10T15:56:50.015Z,38.30
2019-06-10T15:59:13.322Z,38.20
2019-06-10T16:01:40.342Z,38.20
2019-06-10T16:04:07.994Z,36.20
2019-06-10T16:06:36.031Z,36.40
2019-06-10T16:09:05.552Z,36.30
2019-06-10T16:14:02.844Z,36.70
2019-06-10T16:19:02.279Z,35.00
2019-06-10T16:31:25.565Z,30.80
2019-06-10T16:33:52.723Z,30.20
2019-06-10T16:36:21.849Z,29.70
2019-06-10T16:38:50.131Z,29.40
2019-06-10T16:41:17.780Z,29.20
2019-06-10T16:43:45.463Z,28.90
2019-06-10T16:46:13.107Z,28.80
2019-06-10T16:48:43.440Z,28.70
2019-06-10T16:51:13.284Z,28.60
2019-06-10T16:53:42.474Z,28.60
2019-06-10T16:56:09.294Z,28.50
2019-06-10T16:58:37.307Z,28.50
2019-06-10T17:01:05.165Z,28.40
2019-06-10T17:03:33.810Z,28.40
2019-06-10T17:06:02.633Z,28.40
2019-06-10T17:08:33.153Z,28.50
2019-06-10T17:11:00.045Z,28.60
2019-06-10T17:13:30.164Z,28.80
2019-06-10T17:15:58.239Z,28.80
2019-06-10T17:18:27.898Z,28.90
2019-06-10T17:20:55.275Z,28.90
2019-06-10T17:23:27.068Z,28.90
2019-06-10T17:25:55.151Z,28.80
2019-06-10T17:28:27.377Z,28.60
2019-06-10T17:30:53.807Z,28.40
2019-06-10T17:33:22.874Z,28.30
2019-06-10T17:35:52.475Z,28.10
2019-06-10T17:38:20.568Z,27.80
2019-06-10T17:43:15.683Z,27.70
2019-06-10T17:48:12.947Z,27.30
2019-06-10T17:50:42.776Z,27.20
2019-06-10T17:53:09.714Z,27.10
2019-06-10T17:55:37.469Z,26.90
2019-06-10T17:58:05.193Z,26.90
2019-06-10T18:00:36.057Z,26.80
2019-06-10T18:03:03.723Z,26.70
2019-06-10T18:05:31.593Z,26.60
2019-06-10T18:07:59.271Z,26.50
2019-06-10T18:10:27.664Z,26.50
2019-06-10T18:12:55.627Z,26.30
2019-06-10T18:15:24.016Z,26.20
2019-06-10T18:17:55.309Z,25.90
2019-06-10T18:22:52.831Z,25.60
2019-06-10T18:25:20.020Z,25.60
2019-06-10T18:30:15.690Z,25.30
2019-06-10T18:32:43.331Z,25.10
2019-06-10T18:35:11.162Z,25.10
2019-06-10T18:37:39.140Z,25.00
2019-06-10T18:40:07.442Z,24.90
2019-06-10T18:42:36.208Z,24.90
2019-06-10T18:45:05.697Z,24.70
2019-06-10T18:47:35.697Z,24.50
2019-06-10T18:50:03.166Z,24.40
2019-06-10T18:52:32.607Z,24.30
2019-06-10T18:55:00.257Z,24.20
2019-06-10T18:57:28.764Z,24.20
2019-06-10T19:02:24.046Z,24.30
2019-06-10T19:04:54.429Z,24.30
2019-06-10T19:07:22.688Z,24.50
2019-06-10T19:09:52.717Z,24.40
2019-06-10T19:12:22.319Z,24.40
2019-06-10T19:14:49.330Z,24.40
2019-06-10T19:17:17.581Z,24.40
2019-06-10T19:19:45.244Z,24.40
2019-06-10T19:22:13.338Z,24.40
2019-06-10T19:24:44.571Z,24.40
2019-06-10T19:27:10.967Z,24.30
2019-06-10T19:29:45.461Z,24.40
2019-06-10T19:32:08.227Z,24.30
2019-06-10T19:34:35.947Z,24.10
2019-06-10T19:37:03.679Z,24.20
2019-06-10T19:39:35.061Z,24.20
2019-06-10T19:42:02.805Z,24.20
2019-06-10T19:44:32.783Z,24.30
2019-06-10T19:47:02.367Z,24.20
2019-06-10T19:49:29.575Z,24.40
2019-06-10T19:51:57.255Z,24.20
2019-06-10T19:54:24.902Z,23.40
2019-06-10T19:56:53.041Z,24.10
2019-06-10T19:59:22.980Z,24.10
2019-06-10T20:04:18.301Z,24.10
2019-06-10T20:06:50.409Z,24.00
2019-06-10T20:09:15.732Z,24.00
2019-06-10T20:11:46.971Z,24.00
2019-06-10T20:14:13.168Z,23.90
2019-06-10T20:16:42.989Z,23.80
2019-06-10T20:19:12.835Z,23.80
2019-06-10T20:21:40.738Z,23.80
2019-06-10T20:24:09.211Z,23.70
2019-06-10T20:26:36.863Z,23.70
2019-06-10T20:29:04.588Z,23.60
2019-06-10T20:31:32.670Z,23.50
2019-06-10T20:36:29.451Z,23.10
2019-06-10T20:38:57.106Z,22.50
2019-06-10T20:41:24.790Z,22.60
2019-06-10T20:43:55.461Z,22.40
2019-06-10T20:46:23.605Z,22.40
2019-06-10T20:48:54.439Z,22.30
2019-06-10T20:51:22.658Z,22.30
2019-06-10T20:53:53.155Z,22.30
2019-06-10T20:56:20.436Z,22.30
2019-06-10T20:58:49.767Z,22.40
2019-06-10T21:01:18.052Z,22.40
2019-06-10T21:03:47.575Z,22.80
2019-06-10T21:06:16.071Z,22.80
2019-06-10T21:08:46.788Z,23.20
2019-06-10T21:11:13.752Z,23.40
2019-06-10T21:13:47.277Z,23.50
2019-06-10T21:16:12.707Z,23.50
2019-06-10T21:18:43.711Z,23.60
2019-06-10T21:21:09.982Z,23.50
2019-06-10T21:23:37.912Z,23.40
2019-06-10T21:26:05.581Z,23.30
2019-06-10T21:28:33.265Z,23.20
2019-06-10T21:31:02.751Z,23.00
2019-06-10T21:33:30.431Z,22.90
2019-06-10T21:35:58.365Z,22.80
2019-06-10T21:38:26.059Z,22.50
2019-06-10T21:43:22.439Z,22.40
2019-06-10T21:45:56.202Z,22.20
2019-06-10T21:48:19.762Z,22.10
2019-06-10T21:50:48.601Z,22.10
2019-06-10T21:53:16.953Z,22.00
2019-06-10T21:55:45.191Z,21.90
2019-06-10T21:58:13.137Z,21.70
2019-06-10T22:01:02.437Z,21.40
2019-06-10T22:03:19.015Z,21.40
2019-06-10T22:05:47.491Z,21.30
2019-06-10T22:08:15.782Z,21.10
2019-06-10T22:10:44.195Z,21.10
2019-06-10T22:13:12.458Z,21.10
2019-06-10T22:15:42.524Z,20.90
2019-06-10T22:18:12.412Z,20.90
2019-06-10T22:20:39.498Z,20.90
2019-06-10T22:23:07.159Z,21.00
2019-06-10T22:25:34.875Z,20.90
2019-06-10T22:28:02.947Z,20.90
2019-06-10T22:30:32.142Z,20.90
2019-06-10T22:33:00.014Z,20.80
2019-06-10T22:35:27.675Z,20.80
2019-06-10T22:37:56.661Z,20.60
2019-06-10T22:40:24.515Z,20.50
2019-06-10T22:42:54.015Z,20.50
2019-06-10T22:45:21.911Z,20.40
2019-06-10T22:47:49.824Z,20.40
2019-06-10T22:50:18.944Z,20.40
2019-06-10T22:52:47.226Z,20.30
2019-06-10T22:55:14.917Z,20.20
2019-06-10T22:57:43.941Z,20.20
2019-06-10T23:00:13.098Z,20.20
2019-06-10T23:02:40.887Z,20.20
2019-06-10T23:05:08.644Z,20.10
2019-06-10T23:07:36.467Z,20.10
2019-06-10T23:10:05.592Z,19.90
2019-06-10T23:12:33.541Z,19.90
2019-06-10T23:15:02.808Z,19.70
2019-06-10T23:17:31.000Z,19.50
2019-06-10T23:19:59.749Z,19.20
2019-06-10T23:24:55.762Z,19.20
2019-06-10T23:27:23.561Z,19.20
2019-06-10T23:29:53.939Z,19.00
2019-06-10T23:32:22.217Z,18.90
2019-06-10T23:34:53.571Z,18.80
2019-06-10T23:37:38.889Z,18.70
2019-06-10T23:40:06.535Z,18.70
2019-06-10T23:47:32.636Z,18.50
2019-06-10T23:50:04.165Z,18.50
